createdAt,value
2018-02-09T00:00:50.846Z,95.97
2018-02-09T00:03:18.315Z,103.68
2018-02-09T00:05:45.942Z,97.75
2018-02-09T00:08:13.487Z,91.50
2018-02-09T00:10:40.988Z,96.15
2018-02-09T00:13:08.452Z,102.25
2018-02-09T00:15:36.114Z,93.40
2018-02-09T00:18:04.219Z,97.62
2018-02-09T00:20:31.696Z,95.53
2018-02-09T00:22:59.936Z,96.22
2018-02-09T00:25:27.496Z,92.18
2018-02-09T00:27:54.976Z,90.20
2018-02-09T00:30:23.214Z,96.37
2018-02-09T00:32:50.726Z,88.57
2018-02-09T00:35:18.967Z,94.13
2018-02-09T00:37:46.434Z,91.47
2018-02-09T00:40:13.909Z,92.88
2018-02-09T00:42:42.235Z,96.85
2018-02-09T00:45:10.507Z,94.32
2018-02-09T00:47:37.997Z,97.85
2018-02-09T00:50:05.470Z,100.28
2018-02-09T00:52:33.728Z,96.65
2018-02-09T00:55:01.206Z,92.88
2018-02-09T00:57:28.813Z,101.97
2018-02-09T00:59:56.361Z,93.70
2018-02-09T01:02:23.857Z,93.57
2018-02-09T01:04:51.326Z,101.47
2018-02-09T01:07:18.903Z,96.25
2018-02-09T01:09:46.423Z,84.82
2018-02-09T01:12:13.876Z,93.25
2018-02-09T01:14:41.352Z,93.82
2018-02-09T01:17:08.870Z,90.87
2018-02-09T01:19:36.340Z,97.20
2018-02-09T01:22:03.809Z,92.15
2018-02-09T01:24:31.283Z,90.32
2018-02-09T01:26:59.543Z,94.47
2018-02-09T01:29:27.102Z,85.10
2018-02-09T01:31:54.590Z,92.30
2018-02-09T01:34:22.068Z,81.05
2018-02-09T01:36:49.632Z,90.70
2018-02-09T01:39:17.156Z,81.28
2018-02-09T01:41:44.713Z,78.28
2018-02-09T01:44:12.990Z,82.40
2018-02-09T01:46:40.509Z,79.22
2018-02-09T01:49:07.996Z,95.85
2018-02-09T01:51:35.493Z,91.25
2018-02-09T01:54:02.981Z,91.85
2018-02-09T01:56:30.467Z,88.25
2018-02-09T01:58:58.522Z,88.53
2018-02-09T02:01:26.750Z,85.65
2018-02-09T02:03:54.977Z,91.07
2018-02-09T02:06:22.429Z,93.60
2018-02-09T02:08:49.890Z,88.47
2018-02-09T02:11:18.107Z,88.95
2018-02-09T02:13:45.601Z,85.57
2018-02-09T02:16:13.082Z,87.85
2018-02-09T02:18:41.352Z,91.35
2018-02-09T02:21:08.807Z,92.18
2018-02-09T02:23:37.150Z,87.55
2018-02-09T02:26:04.617Z,88.12
2018-02-09T02:28:32.065Z,90.22
2018-02-09T02:30:59.573Z,84.05
2018-02-09T02:33:27.040Z,87.15
2018-02-09T02:35:54.534Z,96.63
2018-02-09T02:38:22.038Z,86.43
2018-02-09T02:40:49.511Z,84.62
2018-02-09T02:43:17.772Z,90.80
2018-02-09T02:45:45.240Z,97.22
2018-02-09T02:48:12.731Z,89.53
2018-02-09T02:51:03.107Z,86.00
2018-02-09T02:53:30.626Z,85.60
2018-02-09T02:55:58.172Z,92.97
2018-02-09T02:58:25.737Z,87.12
2018-02-09T03:00:53.225Z,82.68
2018-02-09T03:03:20.676Z,77.18
2018-02-09T03:05:48.155Z,87.85
2018-02-09T03:08:15.652Z,83.35
2018-02-09T03:10:43.112Z,89.37
2018-02-09T03:13:11.350Z,88.18
2018-02-09T03:15:38.909Z,93.75
2018-02-09T03:18:06.431Z,96.30
2018-02-09T03:20:33.915Z,83.10
2018-02-09T03:23:01.369Z,86.63
2018-02-09T03:25:28.927Z,86.97
2018-02-09T03:27:56.377Z,93.95
2018-02-09T03:30:23.856Z,98.30
2018-02-09T03:32:51.302Z,83.43
2018-02-09T03:35:18.785Z,84.00
2018-02-09T03:37:46.310Z,82.22
2018-02-09T03:40:13.775Z,95.75
2018-02-09T03:42:41.271Z,67.80
2018-02-09T03:45:09.528Z,86.37
2018-02-09T03:47:37.056Z,88.65
2018-02-09T03:50:04.614Z,84.70
2018-02-09T03:52:40.116Z,86.40
2018-02-09T03:55:13.722Z,81.47
2018-02-09T04:03:28.773Z,87.93
2018-02-09T04:06:00.893Z,93.32
2018-02-09T04:08:28.380Z,84.15
2018-02-09T04:10:55.838Z,76.82
2018-02-09T04:13:23.327Z,78.62
2018-02-09T04:15:50.802Z,93.85
2018-02-09T04:18:18.804Z,79.65
2018-02-09T04:20:50.494Z,93.00
2018-02-09T04:23:17.974Z,83.68
2018-02-09T04:25:45.440Z,81.32
2018-02-09T04:28:12.886Z,85.53
2018-02-09T04:30:41.131Z,77.55
2018-02-09T04:33:08.624Z,91.35
2018-02-09T04:35:36.850Z,89.85
2018-02-09T04:38:04.321Z,78.90
2018-02-09T04:40:31.780Z,97.10
2018-02-09T04:43:00.151Z,83.78
2018-02-09T04:45:27.701Z,88.75
2018-02-09T04:47:55.248Z,94.25
2018-02-09T04:50:22.727Z,80.97
2018-02-09T04:52:50.191Z,82.65
2018-02-09T04:55:17.810Z,90.45
2018-02-09T04:57:45.268Z,81.37
2018-02-09T05:00:12.979Z,93.22
2018-02-09T05:02:40.549Z,78.37
2018-02-09T05:05:08.031Z,74.05
2018-02-09T05:07:35.558Z,88.97
2018-02-09T05:10:03.084Z,84.32
2018-02-09T05:12:30.619Z,78.10
2018-02-09T05:14:58.975Z,86.00
2018-02-09T05:17:26.526Z,85.87
2018-02-09T05:19:54.015Z,91.22
2018-02-09T05:22:21.476Z,76.65
2018-02-09T05:24:48.937Z,82.35
2018-02-09T05:27:17.199Z,84.10
2018-02-09T05:29:44.681Z,73.70
2018-02-09T05:32:12.272Z,87.93
2018-02-09T05:34:40.603Z,79.45
2018-02-09T05:37:08.062Z,79.95
2018-02-09T05:39:35.567Z,80.15
2018-02-09T05:42:03.791Z,88.35
2018-02-09T05:44:31.248Z,83.87
2018-02-09T05:46:58.763Z,92.10
2018-02-09T05:49:27.031Z,79.90
2018-02-09T05:51:54.495Z,72.85
2018-02-09T05:54:21.985Z,81.82
2018-02-09T05:56:49.446Z,75.18
2018-02-09T05:59:16.910Z,79.12
2018-02-09T06:01:44.416Z,87.20
2018-02-09T06:04:12.710Z,80.32
2018-02-09T06:06:40.562Z,80.40
2018-02-09T06:09:08.069Z,78.10
2018-02-09T06:11:35.579Z,75.57
2018-02-09T06:14:03.895Z,84.87
2018-02-09T06:16:31.381Z,80.40
2018-02-09T06:18:59.707Z,73.72
2018-02-09T06:21:27.219Z,84.97
2018-02-09T06:23:54.829Z,77.47
2018-02-09T06:26:22.296Z,82.80
2018-02-09T06:28:49.789Z,79.80
2018-02-09T06:31:17.270Z,86.57
2018-02-09T06:33:45.555Z,77.60
2018-02-09T06:36:13.174Z,75.47
2018-02-09T06:38:40.635Z,84.95
2018-02-09T06:41:08.140Z,81.80
2018-02-09T06:43:35.688Z,92.47
2018-02-09T06:46:03.930Z,80.62
2018-02-09T06:48:31.432Z,78.68
2018-02-09T06:50:58.929Z,76.18
2018-02-09T06:53:26.442Z,87.95
2018-02-09T06:55:54.694Z,87.25
2018-02-09T06:58:22.912Z,78.37
2018-02-09T07:00:51.252Z,84.15
2018-02-09T07:03:19.468Z,79.35
2018-02-09T07:05:46.962Z,81.25
2018-02-09T07:08:14.511Z,74.50
2018-02-09T07:10:42.084Z,77.80
2018-02-09T07:13:09.651Z,77.87
2018-02-09T07:15:37.157Z,84.62
2018-02-09T07:18:04.629Z,82.88
2018-02-09T07:20:32.082Z,72.45
2018-02-09T07:22:59.570Z,78.68
2018-02-09T07:25:27.840Z,76.30
2018-02-09T07:27:56.078Z,86.60
2018-02-09T07:30:23.524Z,75.40
2018-02-09T07:32:51.099Z,82.43
2018-02-09T07:35:18.582Z,72.97
2018-02-09T07:37:46.830Z,79.37
2018-02-09T07:40:14.313Z,72.22
2018-02-09T07:42:42.644Z,83.53
2018-02-09T07:45:10.150Z,79.57
2018-02-09T07:47:37.704Z,80.65
2018-02-09T07:50:05.949Z,79.40
2018-02-09T07:52:33.447Z,81.75
2018-02-09T07:55:01.703Z,91.32
2018-02-09T07:57:29.170Z,84.87
2018-02-09T07:59:57.438Z,82.68
2018-02-09T08:02:24.888Z,76.75
2018-02-09T08:04:52.480Z,69.62
2018-02-09T08:07:19.924Z,82.57
2018-02-09T08:09:48.160Z,81.03
2018-02-09T08:12:15.666Z,79.75
2018-02-09T08:14:43.255Z,82.15
2018-02-09T08:17:10.854Z,73.45
2018-02-09T08:19:38.306Z,68.62
2018-02-09T08:22:05.799Z,83.62
2018-02-09T08:24:33.260Z,76.65
2018-02-09T08:27:00.819Z,74.85
2018-02-09T08:29:28.319Z,79.97
2018-02-09T08:31:55.753Z,81.57
2018-02-09T08:34:23.224Z,79.70
2018-02-09T08:36:50.688Z,81.30
2018-02-09T08:39:18.166Z,80.60
2018-02-09T08:41:45.693Z,82.80
2018-02-09T08:44:13.225Z,89.28
2018-02-09T08:46:40.675Z,73.87
2018-02-09T08:49:08.188Z,82.62
2018-02-09T08:51:35.657Z,85.43
2018-02-09T08:54:03.159Z,83.32
2018-02-09T08:56:31.233Z,86.57
2018-02-09T08:58:58.730Z,82.57
2018-02-09T09:01:26.201Z,76.97
2018-02-09T09:03:53.697Z,81.68
2018-02-09T09:06:21.162Z,87.82
2018-02-09T09:08:48.721Z,72.50
2018-02-09T09:11:16.184Z,80.70
2018-02-09T09:13:43.748Z,79.30
2018-02-09T09:16:11.250Z,71.78
2018-02-09T09:18:38.727Z,80.07
2018-02-09T09:21:06.193Z,85.62
2018-02-09T09:23:33.667Z,72.70
2018-02-09T09:26:01.216Z,71.45
2018-02-09T09:28:28.673Z,83.07
2018-02-09T09:30:56.140Z,89.85
2018-02-09T09:33:23.655Z,75.15
2018-02-09T09:35:51.881Z,82.37
2018-02-09T09:38:19.372Z,85.07
2018-02-09T09:40:47.001Z,81.40
2018-02-09T09:43:14.472Z,77.45
2018-02-09T09:45:41.987Z,83.93
2018-02-09T09:48:09.432Z,76.18
2018-02-09T09:50:36.928Z,86.37
2018-02-09T09:53:04.459Z,86.68
2018-02-09T09:55:31.933Z,82.97
2018-02-09T09:57:59.382Z,85.50
2018-02-09T10:00:26.974Z,87.20
2018-02-09T10:02:54.474Z,92.53
2018-02-09T10:05:21.959Z,86.68
2018-02-09T10:07:49.418Z,83.32
2018-02-09T10:10:16.961Z,79.07
2018-02-09T10:12:44.443Z,82.40
2018-02-09T10:15:11.879Z,85.72
2018-02-09T10:17:39.373Z,80.75
2018-02-09T10:20:06.922Z,83.30
2018-02-09T10:22:34.406Z,76.93
2018-02-09T10:25:01.872Z,83.90
2018-02-09T10:27:29.613Z,82.53
2018-02-09T10:30:16.593Z,80.82
2018-02-09T10:32:44.252Z,87.20
2018-02-09T10:35:11.738Z,81.05
2018-02-09T10:37:39.271Z,77.80
2018-02-09T10:40:06.743Z,79.10
2018-02-09T10:42:34.278Z,80.30
2018-02-09T10:45:01.796Z,75.78
2018-02-09T10:47:29.270Z,70.55
2018-02-09T10:49:56.721Z,80.62
2018-02-09T10:52:24.191Z,78.15
2018-02-09T10:54:51.706Z,77.93
2018-02-09T10:57:19.155Z,79.15
2018-02-09T10:59:47.429Z,72.75
2018-02-09T11:02:15.705Z,78.72
2018-02-09T11:04:43.952Z,77.53
2018-02-09T11:07:11.402Z,74.43
2018-02-09T11:09:38.886Z,68.70
2018-02-09T11:12:07.200Z,75.30
2018-02-09T11:14:34.790Z,78.18
2018-02-09T11:17:02.258Z,79.45
2018-02-09T11:19:29.773Z,74.20
2018-02-09T11:21:57.231Z,71.68
2018-02-09T11:24:24.696Z,72.22
2018-02-09T11:26:52.202Z,76.97
2018-02-09T11:29:19.655Z,68.37
2018-02-09T11:31:47.217Z,75.30
2018-02-09T11:34:14.687Z,75.22
2018-02-09T11:36:42.151Z,79.75
2018-02-09T11:39:09.661Z,79.65
2018-02-09T11:41:37.113Z,73.37
2018-02-09T11:44:04.573Z,76.00
2018-02-09T11:46:32.073Z,75.00
2018-02-09T11:49:00.332Z,72.78
2018-02-09T11:51:27.812Z,70.30
2018-02-09T11:53:55.267Z,72.25
2018-02-09T11:56:22.787Z,69.25
2018-02-09T11:58:50.204Z,66.43
2018-02-09T12:01:17.688Z,79.20
2018-02-09T12:03:45.667Z,71.97
2018-02-09T12:06:13.152Z,76.37
2018-02-09T12:08:40.648Z,59.70
2018-02-09T12:11:08.201Z,63.13
2018-02-09T12:13:35.659Z,62.97
2018-02-09T12:16:03.117Z,62.20
2018-02-09T12:18:30.610Z,49.63
2018-02-09T12:20:58.105Z,51.13
2018-02-09T12:23:25.573Z,56.70
2018-02-09T12:25:53.060Z,55.88
2018-02-09T12:28:20.539Z,57.75
2018-02-09T12:30:47.987Z,64.37
2018-02-09T12:33:15.450Z,62.22
2018-02-09T12:35:43.055Z,58.30
2018-02-09T12:38:10.509Z,57.35
2018-02-09T12:40:37.971Z,61.30
2018-02-09T12:43:05.430Z,47.60
2018-02-09T12:45:33.708Z,48.58
2018-02-09T12:48:01.220Z,53.70
2018-02-09T12:50:29.459Z,58.67
2018-02-09T12:52:56.903Z,52.80
2018-02-09T12:55:24.378Z,53.35
2018-02-09T12:57:51.890Z,46.72
2018-02-09T13:00:19.373Z,53.08
2018-02-09T13:02:46.885Z,62.35
2018-02-09T13:05:15.125Z,52.03
2018-02-09T13:07:42.630Z,59.03
2018-02-09T13:10:10.083Z,59.15
2018-02-09T13:12:49.351Z,62.25
2018-02-09T13:15:16.874Z,65.57
2018-02-09T13:17:45.150Z,61.55
2018-02-09T13:20:13.392Z,54.45
2018-02-09T13:22:52.642Z,58.67
2018-02-09T13:25:20.088Z,57.75
2018-02-09T13:27:47.589Z,62.55
2018-02-09T13:30:15.110Z,69.53
2018-02-09T13:32:55.232Z,52.45
2018-02-09T13:35:22.689Z,60.05
2018-02-09T13:37:50.203Z,62.20
2018-02-09T13:40:17.628Z,73.32
2018-02-09T13:42:45.174Z,62.15
2018-02-09T13:45:12.634Z,67.18
2018-02-09T13:47:40.083Z,63.17
2018-02-09T13:50:07.588Z,72.65
2018-02-09T13:52:35.118Z,64.50
2018-02-09T13:55:03.428Z,60.15
2018-02-09T13:57:30.922Z,66.07
2018-02-09T13:59:58.388Z,65.62
2018-02-09T14:02:25.832Z,70.12
2018-02-09T14:04:53.301Z,64.78
2018-02-09T14:07:20.765Z,66.45
2018-02-09T14:09:48.241Z,67.30
2018-02-09T14:12:16.439Z,60.95
2018-02-09T14:14:43.916Z,65.68
2018-02-09T14:17:11.414Z,65.03
2018-02-09T14:19:39.751Z,70.82
2018-02-09T14:22:07.254Z,67.15
2018-02-09T14:24:34.765Z,70.47
2018-02-09T14:27:02.327Z,70.95
2018-02-09T14:29:29.805Z,68.90
2018-02-09T14:31:57.230Z,64.50
2018-02-09T14:34:24.717Z,65.28
2018-02-09T14:36:52.195Z,69.57
2018-02-09T14:39:20.450Z,66.60
2018-02-09T14:41:47.994Z,63.10
2018-02-09T14:44:15.461Z,60.20
2018-02-09T14:46:43.005Z,61.03
2018-02-09T14:49:10.448Z,55.08
2018-02-09T14:51:37.926Z,61.92
2018-02-09T14:54:05.433Z,73.03
2018-02-09T14:56:33.674Z,63.22
2018-02-09T14:59:01.268Z,71.43
2018-02-09T15:01:28.740Z,67.93
2018-02-09T15:03:56.202Z,68.72
2018-02-09T15:06:23.659Z,69.00
2018-02-09T15:08:51.136Z,57.83
2018-02-09T15:11:18.605Z,56.50
2018-02-09T15:13:46.098Z,72.72
2018-02-09T15:16:13.575Z,60.47
2018-02-09T15:18:41.139Z,66.15
2018-02-09T15:21:08.595Z,55.95
2018-02-09T15:23:36.071Z,62.65
2018-02-09T15:26:03.568Z,69.57
2018-02-09T15:40:20.739Z,68.43
2018-02-09T15:42:56.511Z,68.18
2018-02-09T15:45:24.072Z,63.78
2018-02-09T15:47:52.365Z,61.92
2018-02-09T15:59:13.686Z,53.28
2018-02-09T16:01:41.204Z,57.92
2018-02-09T16:04:08.759Z,57.67
2018-02-09T16:06:36.838Z,55.08
2018-02-09T16:09:04.312Z,70.28
2018-02-09T16:11:36.246Z,55.38
2018-02-09T16:14:04.586Z,55.35
2018-02-09T16:16:32.178Z,62.75
2018-02-09T16:19:05.295Z,58.92
2018-02-09T16:21:52.119Z,58.10
2018-02-09T16:24:19.658Z,59.45
2018-02-09T16:26:47.164Z,63.47
2018-02-09T16:29:22.234Z,49.92
2018-02-09T16:31:49.750Z,61.63
2018-02-09T16:34:17.267Z,62.55
2018-02-09T16:36:44.848Z,58.10
2018-02-09T16:39:12.329Z,58.47
2018-02-09T16:41:39.851Z,50.53
2018-02-09T16:44:07.414Z,61.85
2018-02-09T16:46:36.290Z,67.87
2018-02-09T16:49:03.802Z,59.63
2018-02-09T16:51:31.310Z,64.00
2018-02-09T16:53:58.849Z,59.53
2018-02-09T16:56:27.221Z,63.97
2018-02-09T16:58:54.768Z,58.83
2018-02-09T17:01:22.221Z,65.15
2018-02-09T17:03:49.712Z,60.45
2018-02-09T17:09:24.619Z,50.35
2018-02-09T17:11:52.173Z,60.00
2018-02-09T17:14:19.810Z,63.80
2018-02-09T17:16:47.505Z,73.18
2018-02-09T17:19:15.057Z,63.38
2018-02-09T17:21:43.323Z,71.55
2018-02-09T17:24:10.869Z,65.03
2018-02-09T17:26:38.355Z,69.15
2018-02-09T17:29:05.905Z,62.45
2018-02-09T17:31:33.404Z,72.45
2018-02-09T17:34:00.908Z,60.90
2018-02-09T17:36:28.366Z,66.90
2018-02-09T17:38:55.840Z,67.55
2018-02-09T17:41:23.374Z,62.53
2018-02-09T17:43:50.853Z,60.17
2018-02-09T17:46:18.505Z,58.05
2018-02-09T17:48:45.971Z,64.05
2018-02-09T17:51:14.251Z,60.95
2018-02-09T17:53:42.506Z,69.22
2018-02-09T17:56:09.988Z,55.08
2018-02-09T17:58:37.484Z,66.65
2018-02-09T18:01:04.963Z,61.30
2018-02-09T18:03:32.474Z,66.20
2018-02-09T18:06:00.691Z,58.22
2018-02-09T18:08:28.236Z,63.95
2018-02-09T18:10:56.485Z,61.25
2018-02-09T18:13:24.000Z,65.90
2018-02-09T18:15:52.298Z,53.42
2018-02-09T18:18:20.523Z,64.95
2018-02-09T18:20:48.017Z,61.63
2018-02-09T18:23:15.471Z,58.47
2018-02-09T18:25:42.960Z,65.43
2018-02-09T18:28:10.511Z,68.50
2018-02-09T18:30:37.987Z,58.30
2018-02-09T18:33:05.483Z,58.92
2018-02-09T18:35:32.988Z,64.60
2018-02-09T18:38:00.578Z,75.25
2018-02-09T18:40:28.089Z,66.00
2018-02-09T18:42:55.589Z,75.10
2018-02-09T18:45:23.015Z,59.03
2018-02-09T18:47:51.251Z,64.95
2018-02-09T18:50:18.852Z,58.45
2018-02-09T18:52:46.363Z,57.75
2018-02-09T18:55:13.844Z,57.78
2018-02-09T18:57:42.055Z,60.30
2018-02-09T19:00:09.575Z,62.62
2018-02-09T19:02:37.194Z,64.32
2018-02-09T19:05:04.672Z,59.50
2018-02-09T19:07:32.195Z,62.45
2018-02-09T19:09:59.748Z,62.45
2018-02-09T19:12:27.356Z,56.25
2018-02-09T19:14:54.884Z,56.33
2018-02-09T19:17:22.376Z,60.83
2018-02-09T19:19:49.948Z,57.70
2018-02-09T19:22:18.193Z,56.55
2018-02-09T19:24:45.815Z,59.92
2018-02-09T19:27:13.344Z,56.05
2018-02-09T19:29:44.801Z,59.75
2018-02-09T19:32:12.308Z,56.58
2018-02-09T19:34:40.961Z,66.68
2018-02-09T19:37:08.485Z,57.17
2018-02-09T19:39:36.697Z,74.68
2018-02-09T19:42:04.231Z,61.70
2018-02-09T19:44:31.699Z,67.78
2018-02-09T19:46:59.171Z,61.35
2018-02-09T19:49:27.297Z,58.13
2018-02-09T19:51:55.610Z,64.82
2018-02-09T19:54:23.082Z,53.63
2018-02-09T19:56:50.588Z,59.28
2018-02-09T19:59:18.116Z,52.78
2018-02-09T20:01:47.210Z,61.65
2018-02-09T20:04:14.715Z,62.85
2018-02-09T20:06:42.320Z,63.72
2018-02-09T20:09:11.396Z,55.42
2018-02-09T20:11:39.677Z,60.45
2018-02-09T20:14:07.209Z,61.40
2018-02-09T20:16:34.786Z,53.78
2018-02-09T20:19:02.297Z,62.28
2018-02-09T20:21:29.840Z,55.70
2018-02-09T20:23:57.361Z,63.65
2018-02-09T20:26:25.716Z,57.90
2018-02-09T20:28:53.160Z,63.90
2018-02-09T20:31:20.658Z,51.92
2018-02-09T20:33:48.132Z,63.47
2018-02-09T20:36:15.688Z,54.70
2018-02-09T20:38:43.247Z,53.85
2018-02-09T20:41:10.739Z,62.75
2018-02-09T20:43:38.226Z,47.72
2018-02-09T20:46:05.708Z,53.72
2018-02-09T20:48:33.801Z,56.63
2018-02-09T20:51:01.270Z,53.08
2018-02-09T20:53:28.789Z,59.05
2018-02-09T20:55:56.248Z,55.33
2018-02-09T20:58:23.743Z,53.20
2018-02-09T21:00:51.200Z,53.67
2018-02-09T21:03:18.927Z,54.45
2018-02-09T21:05:47.168Z,46.58
2018-02-09T21:08:14.894Z,49.55
2018-02-09T21:10:42.355Z,49.67
2018-02-09T21:13:14.460Z,52.33
2018-02-09T21:15:41.996Z,53.65
2018-02-09T21:18:09.481Z,49.20
2018-02-09T21:20:37.758Z,48.65
2018-02-09T21:23:09.280Z,50.45
2018-02-09T21:25:36.964Z,53.00
2018-02-09T21:28:06.153Z,46.13
2018-02-09T21:30:34.658Z,43.87
2018-02-09T21:33:06.694Z,44.10
2018-02-09T21:35:34.181Z,52.88
2018-02-09T21:38:01.669Z,54.53
2018-02-09T21:40:29.161Z,57.55
2018-02-09T21:42:56.644Z,55.72
2018-02-09T21:45:24.890Z,60.63
2018-02-09T21:47:52.695Z,55.10
2018-02-09T21:50:20.242Z,59.35
2018-02-09T21:52:47.765Z,55.00
2018-02-09T21:55:20.478Z,50.20
2018-02-09T21:57:47.977Z,60.85
2018-02-09T22:00:23.337Z,70.03
2018-02-09T22:02:50.811Z,62.90
2018-02-09T22:05:18.295Z,65.32
2018-02-09T22:07:46.481Z,66.05
2018-02-09T22:10:14.000Z,57.58
2018-02-09T22:12:42.356Z,56.10
2018-02-09T22:15:09.880Z,50.60
2018-02-09T22:17:37.393Z,54.90
2018-02-09T22:20:04.952Z,64.90
2018-02-09T22:22:32.681Z,55.35
2018-02-09T22:25:00.276Z,59.55
2018-02-09T22:27:28.908Z,69.57
2018-02-09T22:29:58.329Z,61.92
2018-02-09T22:32:26.687Z,62.95
2018-02-09T22:34:54.148Z,58.72
2018-02-09T22:37:21.590Z,57.70
2018-02-09T22:39:49.182Z,69.53
2018-02-09T22:42:18.628Z,64.93
2018-02-09T22:44:46.121Z,61.17
2018-02-09T22:47:13.695Z,61.88
2018-02-09T22:49:41.202Z,56.70
2018-02-09T22:52:08.756Z,66.25
2018-02-09T22:54:36.207Z,59.97
2018-02-09T22:57:04.634Z,53.80
2018-02-09T22:59:32.952Z,54.13
2018-02-09T23:02:00.475Z,58.05
2018-02-09T23:04:27.964Z,53.28
2018-02-09T23:06:56.308Z,54.00
2018-02-09T23:09:23.744Z,59.80
2018-02-09T23:11:51.283Z,60.80
2018-02-09T23:14:18.813Z,57.25
2018-02-09T23:16:46.302Z,54.28
2018-02-09T23:19:13.766Z,61.50
2018-02-09T23:21:41.247Z,57.80
2018-02-09T23:24:08.840Z,52.78
2018-02-09T23:26:36.294Z,52.45
2018-02-09T23:29:03.783Z,63.95
2018-02-09T23:31:31.998Z,62.83
2018-02-09T23:33:59.476Z,59.80
2018-02-09T23:36:26.932Z,61.88
2018-02-09T23:38:54.403Z,57.53
2018-02-09T23:41:21.875Z,58.28
2018-02-09T23:43:49.331Z,54.80
2018-02-09T23:46:16.900Z,57.50
2018-02-09T23:48:44.387Z,54.20
2018-02-09T23:51:11.905Z,48.38
2018-02-09T23:53:39.435Z,59.75
2018-02-09T23:56:06.952Z,57.25
2018-02-09T23:58:34.501Z,59.65
